Airfield :
LOGIN :

Register | Disclaimer

   EN    FR    IT 

 










Legend :    VFR   Marginal VFR   IFR   Intensive IFR   Very Intensive IFR
Visi :
Ceiling :
>= 8 km
>= 3000ft
5 to 8 km
1000 to 3000 ft
1500m to 5 km
500 to 1000 ft
800 to 1500m
200 to 500 ft
< 800m
< 200 ft
Symbols :   Thunderstorms  Fog  Heavy snow  Heavy precipitations  Wind > 20 kt
SIGMETs :     Misc.  Thunderstorms  Icing  Turbulence  Mountain Waves  Volcanic Ashes






- Airport Elevation : 157 ft
- IATA code : SXF


EDDB - Berlin Schönefeld

CURRENT METAR :
  • 151020Z 22016KT 9999 -SHRA FEW010 BKN031 08/06 Q0997 TEMPO 20015G25KT

EXPIRED METARs :
  • 150950Z 20015KT 9999 -SHRA FEW011 SCT044CB BKN047 07/06 Q0997 RESHRA TEMPO 20015G25KT
  • 150920Z 19014KT 9999 -SHRA FEW019 BKN042CB 06/04 Q0997 TEMPO 18015G25KT SHRA
  • 150850Z 17016KT 9999 FEW012 05/03 Q0997 TEMPO 18015G25KT SHRA
  • 150820Z 16015KT 9999 FEW012 05/03 Q0997 NOSIG

TAF TAF EDDB
Valid from the 15 at 06:00 until the 16 at 06:00 UTC


150500Z 1506/1606 18011KT 9999 SCT030
PROB30
TEMPO 1508/1512 RA BKN013
BECMG 1509/1511 23015G25KT
BECMG 1517/1519 21009KT



MET'MAP, your aeronautical weather chart ! - Copyright ORBIFLY December 2007 - Disclaimer

ORBIFLY MET'MAP TEAM :

Programming & Development : Alexandra Zaïnal
Concept & original design : Baudouin d'Aumeries
Assistance for programming : Marc-Olivier Méhu
Technical & hardware support : Manuel Goepfert

Contact : metmap@orbifly.com




SOURCES & CREDITS :

   NOAA